sensor_id;sensor_type;location;lat;lon;timestamp;P1;durP1;ratioP1;P2;durP2;ratioP2
21034;SDS011;10676;50.848;3.272;2023-07-30T00:01:32;10.40;;;2.38;;
21034;SDS011;10676;50.848;3.272;2023-07-30T00:03:58;20.17;;;2.70;;
21034;SDS011;10676;50.848;3.272;2023-07-30T00:06:24;17.73;;;2.83;;
21034;SDS011;10676;50.848;3.272;2023-07-30T00:08:50;15.75;;;2.53;;
21034;SDS011;10676;50.848;3.272;2023-07-30T00:11:15;17.70;;;2.50;;
21034;SDS011;10676;50.848;3.272;2023-07-30T00:13:41;14.30;;;2.30;;
21034;SDS011;10676;50.848;3.272;2023-07-30T00:16:07;16.13;;;2.30;;
21034;SDS011;10676;50.848;3.272;2023-07-30T00:18:33;16.73;;;2.53;;
21034;SDS011;10676;50.848;3.272;2023-07-30T00:20:59;12.82;;;3.05;;
21034;SDS011;10676;50.848;3.272;2023-07-30T00:23:24;12.02;;;2.42;;
21034;SDS011;10676;50.848;3.272;2023-07-30T00:25:50;16.90;;;2.40;;
21034;SDS011;10676;50.848;3.272;2023-07-30T00:28:16;14.95;;;2.25;;
21034;SDS011;10676;50.848;3.272;2023-07-30T00:30:42;18.15;;;2.35;;
21034;SDS011;10676;50.848;3.272;2023-07-30T00:33:07;15.40;;;2.03;;
21034;SDS011;10676;50.848;3.272;2023-07-30T00:35:33;19.05;;;2.38;;
21034;SDS011;10676;50.848;3.272;2023-07-30T00:38:01;18.65;;;1.90;;
21034;SDS011;10676;50.848;3.272;2023-07-30T00:40:27;15.55;;;2.22;;
21034;SDS011;10676;50.848;3.272;2023-07-30T00:42:52;13.70;;;2.67;;
21034;SDS011;10676;50.848;3.272;2023-07-30T00:45:18;22.33;;;2.40;;
21034;SDS011;10676;50.848;3.272;2023-07-30T00:47:44;14.10;;;2.22;;
21034;SDS011;10676;50.848;3.272;2023-07-30T00:50:10;23.33;;;2.60;;
21034;SDS011;10676;50.848;3.272;2023-07-30T00:52:38;19.10;;;2.45;;
21034;SDS011;10676;50.848;3.272;2023-07-30T00:55:04;12.52;;;2.40;;
21034;SDS011;10676;50.848;3.272;2023-07-30T00:57:31;18.52;;;2.40;;
21034;SDS011;10676;50.848;3.272;2023-07-30T00:59:58;14.98;;;2.60;;
21034;SDS011;10676;50.848;3.272;2023-07-30T01:02:24;13.95;;;2.28;;
21034;SDS011;10676;50.848;3.272;2023-07-30T01:04:49;14.93;;;2.72;;
21034;SDS011;10676;50.848;3.272;2023-07-30T01:07:16;20.35;;;2.20;;
21034;SDS011;10676;50.848;3.272;2023-07-30T01:09:42;11.75;;;2.03;;
21034;SDS011;10676;50.848;3.272;2023-07-30T01:12:08;19.23;;;2.88;;
21034;SDS011;10676;50.848;3.272;2023-07-30T01:14:34;15.77;;;2.08;;
21034;SDS011;10676;50.848;3.272;2023-07-30T01:17:03;18.02;;;2.45;;
21034;SDS011;10676;50.848;3.272;2023-07-30T01:19:29;20.60;;;2.63;;
21034;SDS011;10676;50.848;3.272;2023-07-30T01:21:55;15.10;;;1.85;;
21034;SDS011;10676;50.848;3.272;2023-07-30T01:24:22;13.27;;;2.33;;
21034;SDS011;10676;50.848;3.272;2023-07-30T01:26:50;17.13;;;2.70;;
21034;SDS011;10676;50.848;3.272;2023-07-30T01:29:24;18.73;;;3.03;;
21034;SDS011;10676;50.848;3.272;2023-07-30T01:31:57;18.25;;;2.55;;
21034;SDS011;10676;50.848;3.272;2023-07-30T01:34:29;16.20;;;2.42;;
21034;SDS011;10676;50.848;3.272;2023-07-30T01:36:58;25.67;;;2.72;;
21034;SDS011;10676;50.848;3.272;2023-07-30T01:39:24;18.95;;;2.65;;
21034;SDS011;10676;50.848;3.272;2023-07-30T01:41:53;18.30;;;2.55;;
21034;SDS011;10676;50.848;3.272;2023-07-30T01:44:19;17.08;;;2.70;;
21034;SDS011;10676;50.848;3.272;2023-07-30T01:46:45;20.25;;;2.72;;
21034;SDS011;10676;50.848;3.272;2023-07-30T01:49:10;19.42;;;2.72;;
21034;SDS011;10676;50.848;3.272;2023-07-30T01:51:36;16.77;;;3.00;;
21034;SDS011;10676;50.848;3.272;2023-07-30T01:54:02;13.27;;;2.72;;
21034;SDS011;10676;50.848;3.272;2023-07-30T01:56:27;17.08;;;2.72;;
21034;SDS011;10676;50.848;3.272;2023-07-30T01:58:53;17.52;;;2.97;;
21034;SDS011;10676;50.848;3.272;2023-07-30T02:01:19;18.17;;;2.72;;
21034;SDS011;10676;50.848;3.272;2023-07-30T02:03:45;18.25;;;2.33;;
21034;SDS011;10676;50.848;3.272;2023-07-30T02:06:11;17.80;;;2.88;;
21034;SDS011;10676;50.848;3.272;2023-07-30T02:08:37;18.27;;;3.30;;
21034;SDS011;10676;50.848;3.272;2023-07-30T02:11:02;21.33;;;2.60;;
21034;SDS011;10676;50.848;3.272;2023-07-30T02:13:28;18.98;;;2.33;;
21034;SDS011;10676;50.848;3.272;2023-07-30T02:15:54;15.85;;;3.13;;
21034;SDS011;10676;50.848;3.272;2023-07-30T02:18:19;24.95;;;3.42;;
21034;SDS011;10676;50.848;3.272;2023-07-30T02:20:45;18.45;;;2.92;;
21034;SDS011;10676;50.848;3.272;2023-07-30T02:23:13;15.23;;;2.63;;
21034;SDS011;10676;50.848;3.272;2023-07-30T02:25:40;14.20;;;2.60;;
21034;SDS011;10676;50.848;3.272;2023-07-30T02:28:06;18.33;;;3.22;;
21034;SDS011;10676;50.848;3.272;2023-07-30T02:30:32;21.70;;;2.85;;
21034;SDS011;10676;50.848;3.272;2023-07-30T02:32:59;21.95;;;3.05;;
21034;SDS011;10676;50.848;3.272;2023-07-30T02:35:24;17.50;;;3.08;;
21034;SDS011;10676;50.848;3.272;2023-07-30T02:37:50;21.20;;;3.38;;
21034;SDS011;10676;50.848;3.272;2023-07-30T02:40:16;27.92;;;3.15;;
21034;SDS011;10676;50.848;3.272;2023-07-30T02:42:41;16.00;;;2.97;;
21034;SDS011;10676;50.848;3.272;2023-07-30T02:45:07;23.45;;;3.17;;
21034;SDS011;10676;50.848;3.272;2023-07-30T02:47:33;16.67;;;3.50;;
21034;SDS011;10676;50.848;3.272;2023-07-30T02:49:59;23.23;;;3.40;;
21034;SDS011;10676;50.848;3.272;2023-07-30T02:52:24;17.67;;;2.90;;
21034;SDS011;10676;50.848;3.272;2023-07-30T02:54:50;20.50;;;3.10;;
21034;SDS011;10676;50.848;3.272;2023-07-30T02:57:16;16.23;;;3.00;;
21034;SDS011;10676;50.848;3.272;2023-07-30T02:59:41;20.52;;;3.50;;
21034;SDS011;10676;50.848;3.272;2023-07-30T03:02:07;22.65;;;3.13;;
21034;SDS011;10676;50.848;3.272;2023-07-30T03:04:33;20.55;;;3.28;;
21034;SDS011;10676;50.848;3.272;2023-07-30T03:06:58;29.13;;;3.70;;
21034;SDS011;10676;50.848;3.272;2023-07-30T03:09:24;28.25;;;3.88;;
21034;SDS011;10676;50.848;3.272;2023-07-30T03:11:50;21.02;;;3.17;;
21034;SDS011;10676;50.848;3.272;2023-07-30T03:14:16;19.35;;;3.20;;
21034;SDS011;10676;50.848;3.272;2023-07-30T03:16:45;21.17;;;3.40;;
21034;SDS011;10676;50.848;3.272;2023-07-30T03:19:11;20.00;;;3.97;;
21034;SDS011;10676;50.848;3.272;2023-07-30T03:21:37;18.23;;;3.38;;
21034;SDS011;10676;50.848;3.272;2023-07-30T03:24:03;23.23;;;3.53;;
21034;SDS011;10676;50.848;3.272;2023-07-30T03:26:29;19.77;;;3.80;;
21034;SDS011;10676;50.848;3.272;2023-07-30T03:28:54;17.15;;;3.45;;
21034;SDS011;10676;50.848;3.272;2023-07-30T03:31:20;23.65;;;3.53;;
21034;SDS011;10676;50.848;3.272;2023-07-30T03:33:46;19.90;;;2.95;;
21034;SDS011;10676;50.848;3.272;2023-07-30T03:36:12;20.77;;;3.28;;
21034;SDS011;10676;50.848;3.272;2023-07-30T03:38:38;22.50;;;3.60;;
21034;SDS011;10676;50.848;3.272;2023-07-30T03:41:05;18.27;;;3.50;;
21034;SDS011;10676;50.848;3.272;2023-07-30T03:43:32;18.98;;;4.20;;
21034;SDS011;10676;50.848;3.272;2023-07-30T03:45:58;29.90;;;3.60;;
21034;SDS011;10676;50.848;3.272;2023-07-30T03:48:23;21.80;;;3.80;;
21034;SDS011;10676;50.848;3.272;2023-07-30T03:50:49;22.65;;;3.22;;
21034;SDS011;10676;50.848;3.272;2023-07-30T03:53:15;18.98;;;3.50;;
21034;SDS011;10676;50.848;3.272;2023-07-30T03:55:40;23.25;;;3.38;;
21034;SDS011;10676;50.848;3.272;2023-07-30T03:58:07;19.08;;;4.25;;
21034;SDS011;10676;50.848;3.272;2023-07-30T04:00:32;22.42;;;3.85;;
21034;SDS011;10676;50.848;3.272;2023-07-30T04:02:58;18.92;;;3.55;;
21034;SDS011;10676;50.848;3.272;2023-07-30T04:05:24;19.38;;;3.50;;
21034;SDS011;10676;50.848;3.272;2023-07-30T04:07:49;21.27;;;3.55;;
21034;SDS011;10676;50.848;3.272;2023-07-30T04:10:15;19.27;;;3.75;;
21034;SDS011;10676;50.848;3.272;2023-07-30T04:12:41;16.15;;;3.78;;
21034;SDS011;10676;50.848;3.272;2023-07-30T04:15:07;18.70;;;3.67;;
21034;SDS011;10676;50.848;3.272;2023-07-30T04:17:34;24.80;;;4.00;;
21034;SDS011;10676;50.848;3.272;2023-07-30T04:20:01;23.13;;;3.40;;
21034;SDS011;10676;50.848;3.272;2023-07-30T04:22:27;20.33;;;3.88;;
21034;SDS011;10676;50.848;3.272;2023-07-30T04:24:53;21.13;;;3.88;;
21034;SDS011;10676;50.848;3.272;2023-07-30T04:27:20;22.58;;;4.63;;
21034;SDS011;10676;50.848;3.272;2023-07-30T04:29:45;15.55;;;3.67;;
21034;SDS011;10676;50.848;3.272;2023-07-30T04:32:11;21.33;;;3.58;;
21034;SDS011;10676;50.848;3.272;2023-07-30T04:34:37;16.85;;;3.60;;
21034;SDS011;10676;50.848;3.272;2023-07-30T04:37:03;19.80;;;3.80;;
21034;SDS011;10676;50.848;3.272;2023-07-30T04:39:29;22.90;;;3.60;;
21034;SDS011;10676;50.848;3.272;2023-07-30T04:41:57;20.00;;;3.92;;
21034;SDS011;10676;50.848;3.272;2023-07-30T04:44:22;24.63;;;4.13;;
21034;SDS011;10676;50.848;3.272;2023-07-30T04:46:48;24.67;;;3.92;;
21034;SDS011;10676;50.848;3.272;2023-07-30T04:49:14;16.58;;;3.67;;
21034;SDS011;10676;50.848;3.272;2023-07-30T04:51:39;21.95;;;3.45;;
21034;SDS011;10676;50.848;3.272;2023-07-30T04:54:05;24.88;;;3.20;;
21034;SDS011;10676;50.848;3.272;2023-07-30T04:56:31;22.85;;;4.10;;
21034;SDS011;10676;50.848;3.272;2023-07-30T04:58:57;23.92;;;3.55;;
21034;SDS011;10676;50.848;3.272;2023-07-30T05:01:23;14.75;;;3.00;;
21034;SDS011;10676;50.848;3.272;2023-07-30T05:03:50;22.10;;;3.75;;
21034;SDS011;10676;50.848;3.272;2023-07-30T05:06:15;17.98;;;3.20;;
21034;SDS011;10676;50.848;3.272;2023-07-30T05:08:41;25.13;;;3.78;;
21034;SDS011;10676;50.848;3.272;2023-07-30T05:11:07;18.35;;;3.17;;
21034;SDS011;10676;50.848;3.272;2023-07-30T05:13:32;19.60;;;3.53;;
21034;SDS011;10676;50.848;3.272;2023-07-30T05:15:58;19.33;;;3.70;;
21034;SDS011;10676;50.848;3.272;2023-07-30T05:18:24;28.05;;;3.45;;
21034;SDS011;10676;50.848;3.272;2023-07-30T05:20:49;19.08;;;2.90;;
21034;SDS011;10676;50.848;3.272;2023-07-30T05:23:15;19.30;;;3.10;;
21034;SDS011;10676;50.848;3.272;2023-07-30T05:25:41;28.35;;;3.40;;
21034;SDS011;10676;50.848;3.272;2023-07-30T05:28:07;21.27;;;2.83;;
21034;SDS011;10676;50.848;3.272;2023-07-30T05:30:32;24.67;;;3.35;;
21034;SDS011;10676;50.848;3.272;2023-07-30T05:32:58;16.95;;;2.75;;
21034;SDS011;10676;50.848;3.272;2023-07-30T05:35:24;27.20;;;3.58;;
21034;SDS011;10676;50.848;3.272;2023-07-30T05:37:49;12.30;;;2.65;;
21034;SDS011;10676;50.848;3.272;2023-07-30T05:40:15;13.88;;;2.97;;
21034;SDS011;10676;50.848;3.272;2023-07-30T05:42:40;19.55;;;2.67;;
21034;SDS011;10676;50.848;3.272;2023-07-30T05:45:06;20.38;;;2.70;;
21034;SDS011;10676;50.848;3.272;2023-07-30T05:47:33;17.55;;;2.85;;
21034;SDS011;10676;50.848;3.272;2023-07-30T05:49:58;17.15;;;2.60;;
21034;SDS011;10676;50.848;3.272;2023-07-30T05:52:24;18.40;;;2.80;;
21034;SDS011;10676;50.848;3.272;2023-07-30T05:54:50;23.73;;;3.40;;
21034;SDS011;10676;50.848;3.272;2023-07-30T05:57:15;15.02;;;3.22;;
21034;SDS011;10676;50.848;3.272;2023-07-30T05:59:41;20.20;;;2.58;;
21034;SDS011;10676;50.848;3.272;2023-07-30T06:02:07;22.95;;;3.08;;
21034;SDS011;10676;50.848;3.272;2023-07-30T06:04:32;21.30;;;2.60;;
21034;SDS011;10676;50.848;3.272;2023-07-30T06:07:02;22.60;;;2.72;;
21034;SDS011;10676;50.848;3.272;2023-07-30T06:09:28;14.13;;;2.60;;
21034;SDS011;10676;50.848;3.272;2023-07-30T06:11:55;13.85;;;2.50;;
21034;SDS011;10676;50.848;3.272;2023-07-30T06:14:22;18.92;;;2.58;;
21034;SDS011;10676;50.848;3.272;2023-07-30T06:16:48;20.10;;;2.60;;
21034;SDS011;10676;50.848;3.272;2023-07-30T06:19:14;18.15;;;2.88;;
21034;SDS011;10676;50.848;3.272;2023-07-30T06:21:40;19.58;;;2.35;;
21034;SDS011;10676;50.848;3.272;2023-07-30T06:24:05;16.05;;;2.60;;
21034;SDS011;10676;50.848;3.272;2023-07-30T06:26:31;22.20;;;2.70;;
21034;SDS011;10676;50.848;3.272;2023-07-30T06:28:57;14.15;;;2.25;;
21034;SDS011;10676;50.848;3.272;2023-07-30T06:31:23;19.05;;;3.10;;
21034;SDS011;10676;50.848;3.272;2023-07-30T06:33:49;15.07;;;2.83;;
21034;SDS011;10676;50.848;3.272;2023-07-30T06:36:15;18.60;;;2.85;;
21034;SDS011;10676;50.848;3.272;2023-07-30T06:38:40;23.92;;;3.20;;
21034;SDS011;10676;50.848;3.272;2023-07-30T06:41:06;17.70;;;2.67;;
21034;SDS011;10676;50.848;3.272;2023-07-30T06:43:32;23.85;;;3.15;;
21034;SDS011;10676;50.848;3.272;2023-07-30T06:45:57;17.90;;;2.85;;
21034;SDS011;10676;50.848;3.272;2023-07-30T06:48:23;18.80;;;2.20;;
21034;SDS011;10676;50.848;3.272;2023-07-30T06:50:49;17.10;;;2.58;;
21034;SDS011;10676;50.848;3.272;2023-07-30T06:53:14;17.95;;;2.70;;
21034;SDS011;10676;50.848;3.272;2023-07-30T06:55:40;21.02;;;2.75;;
21034;SDS011;10676;50.848;3.272;2023-07-30T06:58:06;17.10;;;2.47;;
21034;SDS011;10676;50.848;3.272;2023-07-30T07:00:31;14.35;;;2.30;;
21034;SDS011;10676;50.848;3.272;2023-07-30T07:02:57;16.05;;;2.38;;
21034;SDS011;10676;50.848;3.272;2023-07-30T07:05:23;18.63;;;2.72;;
21034;SDS011;10676;50.848;3.272;2023-07-30T07:07:48;16.88;;;2.60;;
21034;SDS011;10676;50.848;3.272;2023-07-30T07:10:14;19.98;;;2.40;;
21034;SDS011;10676;50.848;3.272;2023-07-30T07:12:40;19.65;;;3.15;;
21034;SDS011;10676;50.848;3.272;2023-07-30T07:15:06;16.13;;;2.33;;
21034;SDS011;10676;50.848;3.272;2023-07-30T07:17:32;19.45;;;2.58;;
21034;SDS011;10676;50.848;3.272;2023-07-30T07:19:57;16.90;;;2.10;;
21034;SDS011;10676;50.848;3.272;2023-07-30T07:22:23;13.27;;;2.35;;
21034;SDS011;10676;50.848;3.272;2023-07-30T07:24:51;18.27;;;2.30;;
21034;SDS011;10676;50.848;3.272;2023-07-30T07:27:17;13.52;;;2.10;;
21034;SDS011;10676;50.848;3.272;2023-07-30T07:29:43;10.85;;;1.77;;
21034;SDS011;10676;50.848;3.272;2023-07-30T07:32:09;10.63;;;2.50;;
21034;SDS011;10676;50.848;3.272;2023-07-30T07:34:35;18.60;;;2.88;;
21034;SDS011;10676;50.848;3.272;2023-07-30T07:37:01;16.30;;;2.65;;
21034;SDS011;10676;50.848;3.272;2023-07-30T07:39:28;17.42;;;2.53;;
21034;SDS011;10676;50.848;3.272;2023-07-30T07:41:54;16.33;;;2.53;;
21034;SDS011;10676;50.848;3.272;2023-07-30T07:44:20;20.38;;;2.67;;
21034;SDS011;10676;50.848;3.272;2023-07-30T07:46:46;11.77;;;2.47;;
21034;SDS011;10676;50.848;3.272;2023-07-30T07:49:12;13.73;;;2.45;;
21034;SDS011;10676;50.848;3.272;2023-07-30T07:51:38;19.83;;;2.50;;
21034;SDS011;10676;50.848;3.272;2023-07-30T07:54:03;18.77;;;3.03;;
21034;SDS011;10676;50.848;3.272;2023-07-30T07:56:29;12.88;;;2.35;;
21034;SDS011;10676;50.848;3.272;2023-07-30T07:58:56;8.50;;;2.17;;
21034;SDS011;10676;50.848;3.272;2023-07-30T08:01:22;13.90;;;2.13;;
21034;SDS011;10676;50.848;3.272;2023-07-30T08:03:48;11.25;;;2.10;;
21034;SDS011;10676;50.848;3.272;2023-07-30T08:06:13;15.18;;;2.53;;
21034;SDS011;10676;50.848;3.272;2023-07-30T08:08:39;11.40;;;2.25;;
21034;SDS011;10676;50.848;3.272;2023-07-30T08:11:05;9.75;;;2.13;;
21034;SDS011;10676;50.848;3.272;2023-07-30T08:13:32;10.57;;;1.80;;
21034;SDS011;10676;50.848;3.272;2023-07-30T08:15:58;10.85;;;1.70;;
21034;SDS011;10676;50.848;3.272;2023-07-30T08:18:23;10.13;;;1.77;;
21034;SDS011;10676;50.848;3.272;2023-07-30T08:20:49;5.28;;;1.30;;
21034;SDS011;10676;50.848;3.272;2023-07-30T08:23:15;11.55;;;2.22;;
21034;SDS011;10676;50.848;3.272;2023-07-30T08:25:41;8.52;;;1.83;;
21034;SDS011;10676;50.848;3.272;2023-07-30T08:28:06;11.48;;;2.05;;
21034;SDS011;10676;50.848;3.272;2023-07-30T08:30:32;8.43;;;1.52;;
21034;SDS011;10676;50.848;3.272;2023-07-30T08:32:58;11.60;;;1.40;;
21034;SDS011;10676;50.848;3.272;2023-07-30T08:35:23;8.77;;;1.48;;
21034;SDS011;10676;50.848;3.272;2023-07-30T08:37:49;6.85;;;1.50;;
21034;SDS011;10676;50.848;3.272;2023-07-30T08:40:15;8.43;;;1.27;;
21034;SDS011;10676;50.848;3.272;2023-07-30T08:42:40;9.15;;;1.63;;
21034;SDS011;10676;50.848;3.272;2023-07-30T08:45:06;5.53;;;1.40;;
21034;SDS011;10676;50.848;3.272;2023-07-30T08:47:33;10.40;;;1.40;;
21034;SDS011;10676;50.848;3.272;2023-07-30T08:50:04;9.60;;;1.38;;
21034;SDS011;10676;50.848;3.272;2023-07-30T08:52:30;5.30;;;1.08;;
21034;SDS011;10676;50.848;3.272;2023-07-30T08:54:57;8.38;;;1.42;;
21034;SDS011;10676;50.848;3.272;2023-07-30T08:57:26;7.90;;;1.30;;
21034;SDS011;10676;50.848;3.272;2023-07-30T08:59:54;5.60;;;1.33;;
21034;SDS011;10676;50.848;3.272;2023-07-30T09:02:34;5.55;;;1.20;;
21034;SDS011;10676;50.848;3.272;2023-07-30T09:05:00;12.38;;;1.60;;
21034;SDS011;10676;50.848;3.272;2023-07-30T09:07:27;8.75;;;1.52;;
21034;SDS011;10676;50.848;3.272;2023-07-30T09:09:53;9.30;;;1.73;;
21034;SDS011;10676;50.848;3.272;2023-07-30T09:12:18;7.18;;;1.20;;
21034;SDS011;10676;50.848;3.272;2023-07-30T09:14:46;8.25;;;1.75;;
21034;SDS011;10676;50.848;3.272;2023-07-30T09:17:19;9.07;;;1.42;;
21034;SDS011;10676;50.848;3.272;2023-07-30T09:19:45;6.88;;;1.00;;
21034;SDS011;10676;50.848;3.272;2023-07-30T09:22:28;7.85;;;1.75;;
21034;SDS011;10676;50.848;3.272;2023-07-30T09:24:55;9.05;;;1.10;;
21034;SDS011;10676;50.848;3.272;2023-07-30T09:27:25;5.68;;;1.00;;
21034;SDS011;10676;50.848;3.272;2023-07-30T09:30:01;5.40;;;1.38;;
21034;SDS011;10676;50.848;3.272;2023-07-30T09:32:31;4.53;;;0.88;;
21034;SDS011;10676;50.848;3.272;2023-07-30T09:35:07;5.70;;;0.77;;
21034;SDS011;10676;50.848;3.272;2023-07-30T09:37:38;4.90;;;0.68;;
21034;SDS011;10676;50.848;3.272;2023-07-30T09:40:09;6.05;;;1.10;;
21034;SDS011;10676;50.848;3.272;2023-07-30T09:42:37;9.52;;;1.33;;
21034;SDS011;10676;50.848;3.272;2023-07-30T09:45:05;3.90;;;0.73;;
21034;SDS011;10676;50.848;3.272;2023-07-30T09:47:32;5.05;;;0.85;;
21034;SDS011;10676;50.848;3.272;2023-07-30T09:50:00;3.78;;;0.90;;
21034;SDS011;10676;50.848;3.272;2023-07-30T09:52:27;4.45;;;1.00;;
21034;SDS011;10676;50.848;3.272;2023-07-30T09:54:54;9.68;;;1.23;;
21034;SDS011;10676;50.848;3.272;2023-07-30T09:57:23;4.20;;;1.00;;
21034;SDS011;10676;50.848;3.272;2023-07-30T09:59:48;5.85;;;1.25;;
21034;SDS011;10676;50.848;3.272;2023-07-30T10:02:14;4.88;;;1.27;;
21034;SDS011;10676;50.848;3.272;2023-07-30T10:04:42;9.35;;;1.05;;
21034;SDS011;10676;50.848;3.272;2023-07-30T10:07:18;6.55;;;1.25;;
21034;SDS011;10676;50.848;3.272;2023-07-30T10:09:46;8.73;;;1.10;;
21034;SDS011;10676;50.848;3.272;2023-07-30T10:12:18;5.50;;;0.80;;
21034;SDS011;10676;50.848;3.272;2023-07-30T10:14:47;4.63;;;1.10;;
21034;SDS011;10676;50.848;3.272;2023-07-30T10:17:13;8.55;;;1.20;;
21034;SDS011;10676;50.848;3.272;2023-07-30T10:19:41;4.65;;;1.08;;
21034;SDS011;10676;50.848;3.272;2023-07-30T10:24:39;6.30;;;1.30;;
21034;SDS011;10676;50.848;3.272;2023-07-30T10:27:09;4.88;;;0.75;;
21034;SDS011;10676;50.848;3.272;2023-07-30T10:29:40;7.70;;;0.82;;
21034;SDS011;10676;50.848;3.272;2023-07-30T10:32:06;6.10;;;1.25;;
21034;SDS011;10676;50.848;3.272;2023-07-30T10:34:45;6.65;;;1.10;;
21034;SDS011;10676;50.848;3.272;2023-07-30T10:37:18;2.08;;;0.77;;
21034;SDS011;10676;50.848;3.272;2023-07-30T10:39:48;3.13;;;0.73;;
21034;SDS011;10676;50.848;3.272;2023-07-30T10:42:15;7.57;;;0.90;;
21034;SDS011;10676;50.848;3.272;2023-07-30T10:44:43;6.22;;;0.80;;
21034;SDS011;10676;50.848;3.272;2023-07-30T10:47:10;5.03;;;0.93;;
21034;SDS011;10676;50.848;3.272;2023-07-30T10:49:36;5.47;;;1.10;;
21034;SDS011;10676;50.848;3.272;2023-07-30T10:52:03;5.47;;;1.27;;
21034;SDS011;10676;50.848;3.272;2023-07-30T10:54:35;6.60;;;1.23;;
21034;SDS011;10676;50.848;3.272;2023-07-30T10:57:05;5.15;;;1.00;;
21034;SDS011;10676;50.848;3.272;2023-07-30T10:59:34;6.15;;;1.48;;
21034;SDS011;10676;50.848;3.272;2023-07-30T11:02:01;4.20;;;0.88;;
21034;SDS011;10676;50.848;3.272;2023-07-30T11:04:27;4.00;;;0.95;;
21034;SDS011;10676;50.848;3.272;2023-07-30T11:06:53;6.15;;;1.10;;
21034;SDS011;10676;50.848;3.272;2023-07-30T11:09:25;4.47;;;0.98;;
21034;SDS011;10676;50.848;3.272;2023-07-30T11:11:53;3.78;;;1.10;;
21034;SDS011;10676;50.848;3.272;2023-07-30T11:14:21;7.38;;;0.95;;
21034;SDS011;10676;50.848;3.272;2023-07-30T11:16:51;8.50;;;1.45;;
21034;SDS011;10676;50.848;3.272;2023-07-30T11:19:20;3.40;;;0.88;;
21034;SDS011;10676;50.848;3.272;2023-07-30T11:21:47;5.20;;;1.10;;
21034;SDS011;10676;50.848;3.272;2023-07-30T11:24:13;5.10;;;0.82;;
21034;SDS011;10676;50.848;3.272;2023-07-30T11:26:39;3.75;;;0.80;;
21034;SDS011;10676;50.848;3.272;2023-07-30T11:29:15;4.53;;;1.13;;
21034;SDS011;10676;50.848;3.272;2023-07-30T11:31:45;2.30;;;0.77;;
21034;SDS011;10676;50.848;3.272;2023-07-30T11:34:11;7.57;;;0.80;;
21034;SDS011;10676;50.848;3.272;2023-07-30T11:36:41;5.55;;;1.10;;
21034;SDS011;10676;50.848;3.272;2023-07-30T11:39:08;6.80;;;1.13;;
21034;SDS011;10676;50.848;3.272;2023-07-30T11:41:35;3.25;;;1.00;;
21034;SDS011;10676;50.848;3.272;2023-07-30T11:44:01;1.40;;;0.75;;
21034;SDS011;10676;50.848;3.272;2023-07-30T11:46:28;2.35;;;0.80;;
21034;SDS011;10676;50.848;3.272;2023-07-30T11:49:10;4.68;;;0.85;;
21034;SDS011;10676;50.848;3.272;2023-07-30T11:51:37;5.07;;;1.33;;
21034;SDS011;10676;50.848;3.272;2023-07-30T11:54:03;5.60;;;1.40;;
21034;SDS011;10676;50.848;3.272;2023-07-30T11:56:29;4.60;;;1.05;;
21034;SDS011;10676;50.848;3.272;2023-07-30T11:59:06;5.00;;;1.02;;
21034;SDS011;10676;50.848;3.272;2023-07-30T12:01:33;2.70;;;1.00;;
21034;SDS011;10676;50.848;3.272;2023-07-30T12:04:00;4.28;;;1.25;;
21034;SDS011;10676;50.848;3.272;2023-07-30T12:09:14;4.25;;;1.23;;
21034;SDS011;10676;50.848;3.272;2023-07-30T12:14:20;6.90;;;1.45;;
21034;SDS011;10676;50.848;3.272;2023-07-30T12:16:47;6.22;;;1.30;;
21034;SDS011;10676;50.848;3.272;2023-07-30T12:19:13;3.38;;;1.20;;
21034;SDS011;10676;50.848;3.272;2023-07-30T12:21:39;6.68;;;1.50;;
21034;SDS011;10676;50.848;3.272;2023-07-30T12:24:04;3.65;;;1.30;;
21034;SDS011;10676;50.848;3.272;2023-07-30T12:26:30;4.47;;;1.00;;
21034;SDS011;10676;50.848;3.272;2023-07-30T12:28:56;6.90;;;1.70;;
21034;SDS011;10676;50.848;3.272;2023-07-30T12:31:22;5.25;;;1.63;;
21034;SDS011;10676;50.848;3.272;2023-07-30T12:33:47;8.18;;;1.27;;
21034;SDS011;10676;50.848;3.272;2023-07-30T12:36:13;7.70;;;1.50;;
21034;SDS011;10676;50.848;3.272;2023-07-30T12:38:39;4.35;;;1.50;;
21034;SDS011;10676;50.848;3.272;2023-07-30T12:41:05;7.50;;;1.85;;
21034;SDS011;10676;50.848;3.272;2023-07-30T12:43:31;6.72;;;1.60;;
21034;SDS011;10676;50.848;3.272;2023-07-30T12:45:56;4.82;;;1.50;;
21034;SDS011;10676;50.848;3.272;2023-07-30T12:48:22;10.20;;;1.77;;
21034;SDS011;10676;50.848;3.272;2023-07-30T12:50:48;5.55;;;1.23;;
21034;SDS011;10676;50.848;3.272;2023-07-30T12:53:13;9.43;;;1.95;;
21034;SDS011;10676;50.848;3.272;2023-07-30T12:55:39;5.75;;;1.70;;
21034;SDS011;10676;50.848;3.272;2023-07-30T12:58:05;10.43;;;1.67;;
21034;SDS011;10676;50.848;3.272;2023-07-30T13:00:31;9.95;;;2.30;;
21034;SDS011;10676;50.848;3.272;2023-07-30T13:02:58;5.45;;;1.90;;
21034;SDS011;10676;50.848;3.272;2023-07-30T13:05:24;12.63;;;2.28;;
21034;SDS011;10676;50.848;3.272;2023-07-30T13:07:50;5.68;;;1.90;;
21034;SDS011;10676;50.848;3.272;2023-07-30T13:10:16;7.50;;;1.90;;
21034;SDS011;10676;50.848;3.272;2023-07-30T13:12:42;9.18;;;2.20;;
21034;SDS011;10676;50.848;3.272;2023-07-30T13:15:08;7.15;;;2.03;;
21034;SDS011;10676;50.848;3.272;2023-07-30T13:17:33;15.85;;;2.67;;
21034;SDS011;10676;50.848;3.272;2023-07-30T13:19:59;7.95;;;2.20;;
21034;SDS011;10676;50.848;3.272;2023-07-30T13:22:25;10.05;;;2.20;;
21034;SDS011;10676;50.848;3.272;2023-07-30T13:24:51;10.25;;;2.05;;
21034;SDS011;10676;50.848;3.272;2023-07-30T13:27:17;7.25;;;2.10;;
21034;SDS011;10676;50.848;3.272;2023-07-30T13:29:43;8.73;;;1.90;;
21034;SDS011;10676;50.848;3.272;2023-07-30T13:32:09;6.32;;;2.08;;
21034;SDS011;10676;50.848;3.272;2023-07-30T13:34:35;7.43;;;1.90;;
21034;SDS011;10676;50.848;3.272;2023-07-30T13:37:00;8.55;;;1.88;;
21034;SDS011;10676;50.848;3.272;2023-07-30T13:39:27;7.80;;;1.98;;
21034;SDS011;10676;50.848;3.272;2023-07-30T13:41:53;9.48;;;2.30;;
21034;SDS011;10676;50.848;3.272;2023-07-30T13:44:19;8.98;;;2.30;;
21034;SDS011;10676;50.848;3.272;2023-07-30T13:46:51;6.05;;;2.60;;
21034;SDS011;10676;50.848;3.272;2023-07-30T13:49:17;10.27;;;2.75;;
21034;SDS011;10676;50.848;3.272;2023-07-30T13:51:42;16.05;;;2.97;;
21034;SDS011;10676;50.848;3.272;2023-07-30T13:54:08;7.03;;;2.05;;
21034;SDS011;10676;50.848;3.272;2023-07-30T13:56:34;9.05;;;2.13;;
21034;SDS011;10676;50.848;3.272;2023-07-30T13:59:00;8.27;;;2.15;;
21034;SDS011;10676;50.848;3.272;2023-07-30T14:01:26;10.27;;;2.17;;
21034;SDS011;10676;50.848;3.272;2023-07-30T14:03:53;7.43;;;2.45;;
21034;SDS011;10676;50.848;3.272;2023-07-30T14:06:18;8.45;;;2.75;;
21034;SDS011;10676;50.848;3.272;2023-07-30T14:08:44;9.45;;;2.20;;
21034;SDS011;10676;50.848;3.272;2023-07-30T14:11:10;8.77;;;1.90;;
21034;SDS011;10676;50.848;3.272;2023-07-30T14:13:35;9.52;;;2.90;;
21034;SDS011;10676;50.848;3.272;2023-07-30T14:16:01;8.23;;;2.05;;
21034;SDS011;10676;50.848;3.272;2023-07-30T14:18:27;9.38;;;2.00;;
21034;SDS011;10676;50.848;3.272;2023-07-30T14:20:52;11.25;;;2.75;;
21034;SDS011;10676;50.848;3.272;2023-07-30T14:23:18;10.60;;;2.63;;
21034;SDS011;10676;50.848;3.272;2023-07-30T14:25:44;8.65;;;2.75;;
21034;SDS011;10676;50.848;3.272;2023-07-30T14:28:09;10.00;;;2.42;;
21034;SDS011;10676;50.848;3.272;2023-07-30T14:30:35;8.80;;;2.72;;
21034;SDS011;10676;50.848;3.272;2023-07-30T14:33:02;9.57;;;2.08;;
21034;SDS011;10676;50.848;3.272;2023-07-30T14:35:28;6.53;;;2.13;;
21034;SDS011;10676;50.848;3.272;2023-07-30T14:37:54;4.97;;;1.95;;
21034;SDS011;10676;50.848;3.272;2023-07-30T14:40:20;6.55;;;2.20;;
21034;SDS011;10676;50.848;3.272;2023-07-30T14:42:46;6.70;;;1.92;;
21034;SDS011;10676;50.848;3.272;2023-07-30T14:45:12;7.97;;;2.22;;